Terminal Aerodrome Forecast
Issued by NWS

Home | Current Version | Previous Version | Text Only | Print | Product List | Glossary On
Versions: 1 2 3 4 5 6 7 8 9 10 11 12 13 14 15 16 17 18 19 20 21 22 23 24 25
000
FTPA31 PHFO 222000 AAA
TAFLIH
TAF AMD
PHLI 222005Z 2220/2318 11007KT P6SM VCSH SCT025 BKN040
      TEMPO 2220/2223 BKN025
     FM230600 04005KT P6SM VCSH SCT025 BKN040=

USA.gov is the U.S. government's official web portal to all federal, state and local government web resources and services.